Meteorología y climatología de Navarra
Datos de la estación - Meteo Navarra

Estación de Sartaguda GN

Altitud 310 m.


Datos desde el 16/09/2020 hasta el 17/09/2020 en horario solar
Los datos son PROVISIONALES

Anterior Página 1 de 1 Siguiente Descargar: Formato para Excel 2000 o superior   Formato csv   Formato para OpenOffice Calc
Fecha Temperatura Humedad relativa Radiación global Insolación Precipitación Vel. viento 10 m Vel. viento 10 m Dir. viento 10 m
ºC % W/m² s l/m² m/s km/h º
16/09/2020 0:00 19.8 67 0.0 0 0.0 2.5 9.1 315
16/09/2020 0:10 19.6 68 0.0 0 0.0 2.7 9.6 314
16/09/2020 0:20 19.4 68 0.0 0 0.0 2.2 8.0 313
16/09/2020 0:30 19.5 69 0.0 0 0.0 2.4 8.5 312
16/09/2020 0:40 19.3 69 0.0 0 0.0 2.5 8.9 312
16/09/2020 0:50 19.3 69 0.0 0 0.0 2.3 8.2 306
16/09/2020 1:00 19.3 68 0.0 0 0.0 2.2 8.0 310
16/09/2020 1:10 19.2 69 0.0 0 0.0 1.8 6.3 299
16/09/2020 1:20 19.1 69 0.0 0 0.0 2.1 7.5 306
16/09/2020 1:30 19.2 69 0.0 0 0.0 2.1 7.6 308
16/09/2020 1:40 19.0 71 0.0 0 0.0 2.4 8.5 312
16/09/2020 1:50 18.9 71 0.0 0 0.0 2.2 7.8 312
16/09/2020 2:00 18.8 72 0.0 0 0.0 2.2 7.8 313
16/09/2020 2:10 18.7 72 0.0 0 0.0 1.9 7.0 311
16/09/2020 2:20 18.6 73 0.0 0 0.0 1.8 6.4 316
16/09/2020 2:30 18.5 74 0.0 0 0.0 0.9 3.4 293
16/09/2020 2:40 17.9 76 0.0 0 0.0 1.1 3.8 274
16/09/2020 2:50 17.7 77 0.0 0 0.0 1.3 4.5 275
16/09/2020 3:00 17.7 77 0.0 0 0.0 1.1 3.8 273
16/09/2020 3:10 17.2 80 0.0 0 0.0 0.9 3.3 240
16/09/2020 3:20 17.1 78 0.0 0 0.0 1.6 5.6 266
16/09/2020 3:30 17.1 78 0.0 0 0.0 1.1 3.9 264
16/09/2020 3:40 17.0 79 0.0 0 0.0 1.3 4.6 273
16/09/2020 3:50 16.9 79 0.0 0 0.0 0.9 3.2 291
16/09/2020 4:00 16.7 80 0.0 0 0.0 1.1 3.8 280
16/09/2020 4:10 16.5 80 0.0 0 0.0 1.0 3.7 272
16/09/2020 4:20 16.3 80 0.0 0 0.0 0.9 3.2 274
16/09/2020 4:30 16.2 80 0.0 0 0.0 0.8 2.7 293
16/09/2020 4:40 15.8 83 0.0 0 0.0 0.3 1.2 226
16/09/2020 4:50 15.4 83 0.0 0 0.0 0.9 3.1 265
16/09/2020 5:00 15.5 82 0.0 0 0.0 1.0 3.5 277
16/09/2020 5:10 15.4 83 0.0 0 0.0 1.4 5.0 277
16/09/2020 5:20 15.6 83 0.0 0 0.0 1.0 3.6 298
16/09/2020 5:30 15.5 85 0.0 0 0.0 0.3 1.2 275
16/09/2020 5:40 15.1 86 0.0 0 0.0 1.0 3.5 258
16/09/2020 5:50 15.3 83 0.0 0 0.0 1.6 5.7 272
16/09/2020 6:00 15.4 83 9.6 0 0.0 0.6 2.1 283
16/09/2020 6:10 15.3 84 27.9 218 0.0 0.4 1.3 300
16/09/2020 6:20 15.4 83 44.8 600 0.0 1.2 4.2 280
16/09/2020 6:30 15.7 83 63.2 600 0.0 0.9 3.3 316
16/09/2020 6:40 15.8 85 85.7 600 0.0 0.7 2.5 322
16/09/2020 6:50 16.1 86 109.9 600 0.0 0.0 0.1 322
16/09/2020 7:00 16.7 85 130.1 600 0.0 0.3 0.9 236
16/09/2020 7:10 17.1 83 166.7 600 0.0 1.1 4.0 309
16/09/2020 7:20 17.4 81 200.0 600 0.0 1.0 3.5 307
16/09/2020 7:30 17.9 79 226.8 600 0.0 1.1 3.9 317
16/09/2020 7:40 18.4 77 259.6 600 0.0 0.9 3.3 339
16/09/2020 7:50 19.1 74 289.1 600 0.0 0.6 2.1 6
16/09/2020 8:00 19.8 71 316.8 600 0.0 0.2 0.6 315
16/09/2020 8:10 20.1 70 345.2 600 0.0 0.7 2.5 334
16/09/2020 8:20 20.6 69 375.5 600 0.0 0.9 3.1 333
16/09/2020 8:30 20.9 68 408.6 600 0.0 1.1 4.0 344
16/09/2020 8:40 21.5 67 437.7 600 0.0 1.6 5.9 352
16/09/2020 8:50 21.9 64 464.9 600 0.0 1.5 5.5 356
16/09/2020 9:00 22.4 62 489.8 600 0.0 1.0 3.7 344
16/09/2020 9:10 23.0 60 516.6 600 0.0 0.7 2.6 55
16/09/2020 9:20 23.8 57 540.4 600 0.0 0.3 1.2 287
16/09/2020 9:30 24.3 57 564.1 600 0.0 0.6 2.2 273
16/09/2020 9:40 24.5 55 588.8 600 0.0 0.3 1.2 251
16/09/2020 9:50 25.2 53 612.5 600 0.0 0.5 1.7 248
16/09/2020 10:00 25.5 53 633.9 600 0.0 0.6 2.3 18
16/09/2020 10:10 25.9 52 651.9 600 0.0 0.7 2.5 5
16/09/2020 10:20 26.1 51 652.8 600 0.0 0.5 1.6 32
16/09/2020 10:30 26.7 50 683.4 600 0.0 0.5 1.6 53
16/09/2020 10:40 27.4 49 701.4 600 0.0 0.8 3.0 16
16/09/2020 10:50 27.2 48 712.8 600 0.0 0.9 3.1 349
16/09/2020 11:00 27.8 46 718.9 600 0.0 0.6 2.3 64
16/09/2020 11:10 28.0 46 728.4 600 0.0 1.5 5.3 122
16/09/2020 11:20 28.4 45 716.9 600 0.0 1.4 5.2 115
16/09/2020 11:30 28.4 45 733.5 600 0.0 1.1 4.0 92
16/09/2020 11:40 28.6 43 748.4 600 0.0 0.8 2.8 90
16/09/2020 11:50 28.8 42 732.8 600 0.0 1.8 6.6 157
16/09/2020 12:00 29.1 41 738.6 600 0.0 1.5 5.4 131
16/09/2020 12:10 29.4 39 733.7 600 0.0 1.8 6.6 160
16/09/2020 12:20 29.8 39 733.7 600 0.0 0.9 3.4 162
16/09/2020 12:30 30.1 39 733.6 600 0.0 1.2 4.2 144
16/09/2020 12:40 30.2 39 721.9 600 0.0 1.3 4.7 70
16/09/2020 12:50 30.4 39 725.9 600 0.0 1.4 4.9 107
16/09/2020 13:00 30.6 38 724.0 600 0.0 1.3 4.6 115
16/09/2020 13:10 31.2 37 696.7 600 0.0 0.7 2.4 188
16/09/2020 13:20 31.4 36 719.2 600 0.0 1.2 4.3 150
16/09/2020 13:30 31.4 36 677.6 600 0.0 1.3 4.8 146
16/09/2020 13:40 31.5 37 664.6 600 0.0 1.8 6.4 126
16/09/2020 13:50 31.5 36 638.2 600 0.0 1.3 4.8 99
16/09/2020 14:00 31.6 35 569.3 600 0.0 2.0 7.2 139
16/09/2020 14:10 31.4 35 509.8 600 0.0 1.9 6.8 145
16/09/2020 14:20 31.7 36 583.9 600 0.0 2.0 7.2 132
16/09/2020 14:30 31.8 33 470.8 428 0.0 1.3 4.5 119
16/09/2020 14:40 31.6 35 358.4 334 0.0 1.8 6.6 125
16/09/2020 14:50 31.0 35 256.3 0 0.0 2.1 7.5 121
16/09/2020 15:00 30.8 37 256.1 2 0.0 1.4 4.9 136
16/09/2020 15:10 30.9 35 348.5 548 0.0 1.8 6.4 154
16/09/2020 15:20 31.2 33 429.8 600 0.0 2.1 7.6 151
16/09/2020 15:30 31.5 33 517.0 600 0.0 2.0 7.1 133
16/09/2020 15:40 31.9 32 455.7 600 0.0 1.6 5.8 111
16/09/2020 15:50 31.9 32 387.4 600 0.0 1.1 4.1 86
16/09/2020 16:00 31.5 32 322.4 600 0.0 2.1 7.6 135
16/09/2020 16:10 31.2 31 264.0 584 0.0 1.5 5.3 138
16/09/2020 16:20 31.1 33 276.0 600 0.0 1.8 6.3 128
16/09/2020 16:30 31.1 32 185.9 406 0.0 1.0 3.5 145
16/09/2020 16:40 30.8 34 97.9 0 0.0 0.9 3.3 108
16/09/2020 16:50 30.2 36 99.6 0 0.0 1.2 4.2 125
16/09/2020 17:00 29.7 41 88.9 0 0.0 0.3 1.2 175
16/09/2020 17:10 29.6 45 74.2 0 0.0 0.0 0.0 150
16/09/2020 17:20 29.1 48 69.4 0 0.0 0.0 0.0 279
16/09/2020 17:30 28.7 48 60.2 0 0.0 0.1 0.2 213
16/09/2020 17:40 28.2 50 49.9 0 0.0 0.2 0.6 24
16/09/2020 17:50 27.8 52 35.9 0 0.0 0.1 0.3 357
16/09/2020 18:00 27.2 52 21.7 0 0.0 0.5 1.7 356
16/09/2020 18:10 26.6 53 2.2 0 0.0 0.2 0.6 333
16/09/2020 18:20 25.7 59 0.0 0 0.0 0.1 0.3 283
16/09/2020 18:30 25.4 59 0.0 0 0.0 0.1 0.3 294
16/09/2020 18:40 24.1 60 0.0 0 0.0 0.8 2.8 235
16/09/2020 18:50 24.1 59 0.0 0 0.0 0.6 2.2 231
16/09/2020 19:00 23.9 61 0.0 0 0.0 0.1 0.2 289
16/09/2020 19:10 23.4 63 0.0 0 0.0 0.6 2.2 348
16/09/2020 19:20 23.0 63 0.0 0 0.0 2.1 7.7 14
16/09/2020 19:30 22.9 58 0.0 0 0.0 2.0 7.1 347
16/09/2020 19:40 22.9 59 0.0 0 0.0 1.0 3.4 229
16/09/2020 19:50 22.8 60 0.0 0 0.0 1.1 4.0 255
16/09/2020 20:00 23.4 55 0.0 0 0.0 0.3 1.2 274
16/09/2020 20:10 23.4 55 0.0 0 0.0 0.4 1.4 227
16/09/2020 20:20 23.2 57 0.0 0 0.0 0.5 1.7 266
16/09/2020 20:30 22.8 59 0.0 0 0.0 0.4 1.4 268
16/09/2020 20:40 22.2 62 0.0 0 0.0 0.2 0.9 214
16/09/2020 20:50 22.0 62 0.0 0 0.0 0.4 1.5 288
16/09/2020 21:00 22.1 63 0.0 0 0.0 0.7 2.6 242
16/09/2020 21:10 22.6 60 0.0 0 0.0 1.0 3.7 258
16/09/2020 21:20 23.2 58 0.0 0 0.0 0.8 3.0 191
16/09/2020 21:30 23.3 58 0.0 0 0.0 0.6 2.1 247
16/09/2020 21:40 22.8 59 0.0 0 0.0 0.6 2.2 293
16/09/2020 21:50 22.7 60 0.0 0 0.0 0.6 2.2 241
16/09/2020 22:00 22.5 60 0.0 0 0.0 0.2 0.8 243
16/09/2020 22:10 22.3 62 0.0 0 0.0 1.0 3.5 315
16/09/2020 22:20 21.9 62 0.0 0 0.0 0.6 2.2 307
16/09/2020 22:30 21.6 63 0.0 0 0.0 1.0 3.7 251
16/09/2020 22:40 21.3 64 0.0 0 0.0 0.6 2.3 295
16/09/2020 22:50 20.9 66 0.0 0 0.0 0.4 1.4 301
16/09/2020 23:00 20.4 68 0.0 0 0.0 0.4 1.3 84
16/09/2020 23:10 20.2 70 0.0 0 0.0 0.4 1.3 23
16/09/2020 23:20 19.8 72 0.0 0 0.0 0.7 2.6 32
16/09/2020 23:30 19.5 74 0.0 0 0.0 0.6 2.0 332
16/09/2020 23:40 19.2 74 0.0 0 0.0 0.1 0.4 271
16/09/2020 23:50 19.0 75 0.0 0 0.0 0.2 0.8 304
Anterior Página 1 de 1 Siguiente

NOTA: Tipo de datos según el color:
   - Valores diarios o 10 minutos correctos
   - Valores diarios calculados a partir de un número de datos 10 minutos menor que 144 y mayor que 120, o de un número de datos semihorarios menor que 48 y mayor que 40 (caso de las estaciones de INTIA y del Ministerio)
   - Valores diez minutos estimados


Contacto        Enlaces        Aviso legal